Time;durP1;ratioP1;P1;durP2;ratioP2;P2;SDS_P1;SDS_P2;PMS_P1;PMS_P2;Temp;Humidity;BMP_temperature;BMP_pressure;BME280_temperature;BME280_humidity;BME280_pressure;Samples;Min_cycle;Max_cycle;Signal;HPM_P1;HPM_P2
2021/07/20 00:00:35;;;;;;;2.43;0.63;;;14.60;99.90;;;;;;4957540;29;20307;-66
2021/07/20 00:03:02;;;;;;;0.40;0.23;;;14.60;99.90;;;;;;4957798;29;20722;-67
2021/07/20 00:05:29;;;;;;;0.40;0.10;;;14.70;99.90;;;;;;4940514;29;20200;-66
2021/07/20 00:07:57;;;;;;;0.73;0.30;;;14.60;99.90;;;;;;4957616;29;20208;-66
2021/07/20 00:10:46;;;;;;;0.40;0.20;;;14.60;99.90;;;;;;4940704;29;20184;-66
2021/07/20 00:13:12;;;;;;;0.40;0.20;;;14.60;99.90;;;;;;4957625;29;20512;-66
2021/07/20 00:15:38;;;;;;;0.40;0.20;;;14.60;99.90;;;;;;4957580;29;20181;-66
2021/07/20 00:18:08;;;;;;;0.40;0.20;;;14.70;99.90;;;;;;4957575;29;20188;-66
2021/07/20 00:20:35;;;;;;;0.40;0.20;;;14.70;99.90;;;;;;4957409;29;20231;-66
2021/07/20 00:23:00;;;;;;;0.40;0.20;;;14.70;99.90;;;;;;4957618;29;20172;-66
2021/07/20 00:25:26;;;;;;;0.40;0.20;;;14.70;99.90;;;;;;4957432;29;20424;-67
2021/07/20 00:27:52;;;;;;;0.40;0.20;;;14.70;99.90;;;;;;4957391;29;20520;-66
2021/07/20 00:30:17;;;;;;;0.40;0.20;;;14.70;99.90;;;;;;4957357;29;20597;-66
2021/07/20 00:32:43;;;;;;;0.40;0.20;;;14.70;99.90;;;;;;4957486;29;20183;-66
2021/07/20 00:35:11;;;;;;;0.40;0.20;;;14.70;99.90;;;;;;4957361;29;20293;-66
2021/07/20 00:37:38;;;;;;;0.40;0.20;;;14.60;99.90;;;;;;4957657;29;20168;-63
2021/07/20 00:40:05;;;;;;;0.50;0.43;;;14.60;99.90;;;;;;4959209;29;20240;-66
2021/07/20 00:42:31;;;;;;;0.40;0.30;;;14.50;99.90;;;;;;4958705;29;20188;-65
2021/07/20 00:44:56;;;;;;;0.40;0.20;;;14.50;99.90;;;;;;4958094;29;20180;-65
2021/07/20 00:47:22;;;;;;;1.23;1.13;;;14.50;99.90;;;;;;4957826;29;20202;-63
2021/07/20 00:49:48;;;;;;;0.40;0.20;;;14.60;99.90;;;;;;4957596;29;20199;-62
2021/07/20 00:52:14;;;;;;;0.40;0.20;;;14.60;99.90;;;;;;4957466;29;20240;-63
2021/07/20 00:54:39;;;;;;;0.40;0.20;;;14.60;99.90;;;;;;4957383;29;20456;-62
2021/07/20 00:57:06;;;;;;;0.40;0.20;;;14.60;99.90;;;;;;4958032;29;20568;-66
2021/07/20 00:59:32;;;;;;;1.98;1.17;;;14.60;99.90;;;;;;4957599;29;20204;-63
2021/07/20 01:01:58;;;;;;;0.40;0.22;;;14.50;99.90;;;;;;4957234;29;20275;-66
2021/07/20 01:04:24;;;;;;;0.40;0.20;;;14.60;99.90;;;;;;4957824;28;20180;-64
2021/07/20 01:06:51;;;;;;;0.40;0.20;;;14.60;99.90;;;;;;4956859;29;20184;-63
2021/07/20 01:09:18;;;;;;;0.40;0.30;;;14.60;99.90;;;;;;4956425;29;20276;-63
2021/07/20 01:11:44;;;;;;;0.40;0.20;;;14.60;99.90;;;;;;4956439;29;20176;-64
2021/07/20 01:14:10;;;;;;;0.60;0.60;;;14.60;99.90;;;;;;4956416;29;20247;-63
2021/07/20 01:16:38;;;;;;;0.40;0.20;;;14.60;99.90;;;;;;4939387;29;20252;-63
2021/07/20 01:19:06;;;;;;;0.70;0.60;;;14.60;99.90;;;;;;4956443;29;20479;-63
2021/07/20 01:21:35;;;;;;;0.40;0.20;;;14.60;99.90;;;;;;4956172;29;20219;-64
2021/07/20 01:24:14;;;;;;;0.50;0.50;;;14.60;99.90;;;;;;4956196;29;20230;-64
2021/07/20 01:26:40;;;;;;;0.40;0.20;;;14.50;99.90;;;;;;4939142;29;20180;-63
2021/07/20 01:29:07;;;;;;;0.40;0.20;;;14.50;99.90;;;;;;4956242;29;20513;-63
2021/07/20 01:31:39;;;;;;;0.40;0.20;;;14.50;99.90;;;;;;4956224;29;20191;-66
2021/07/20 01:34:07;;;;;;;0.70;0.63;;;14.50;99.90;;;;;;4956056;29;20176;-66
2021/07/20 01:36:33;;;;;;;0.40;0.20;;;14.60;99.90;;;;;;4956143;29;20192;-66
2021/07/20 01:39:04;;;;;;;0.40;0.20;;;14.60;99.90;;;;;;4955803;29;20185;-66
2021/07/20 01:41:31;;;;;;;0.40;0.20;;;14.60;99.90;;;;;;4938996;29;20358;-66
2021/07/20 01:43:59;;;;;;;0.40;0.20;;;14.50;99.90;;;;;;4956103;29;20651;-66
2021/07/20 01:46:27;;;;;;;0.40;0.20;;;14.40;99.90;;;;;;4955927;29;20176;-66
2021/07/20 01:48:54;;;;;;;0.40;0.20;;;14.40;99.90;;;;;;4955541;29;20180;-66
2021/07/20 01:51:21;;;;;;;0.40;0.10;;;14.50;99.90;;;;;;4955949;29;20255;-66
2021/07/20 01:53:48;;;;;;;0.40;0.30;;;14.30;99.90;;;;;;4955868;29;20549;-66
2021/07/20 01:56:14;;;;;;;0.40;0.20;;;14.40;99.90;;;;;;4938851;29;20221;-66
2021/07/20 01:58:43;;;;;;;0.40;0.20;;;14.50;99.90;;;;;;4955636;29;20498;-66
2021/07/20 02:01:22;;;;;;;0.40;0.20;;;14.50;99.90;;;;;;4955589;29;20516;-66
2021/07/20 02:09:28;;;;;;;0.40;0.20;;;14.20;99.90;;;;;;4955842;29;20506;-66
2021/07/20 02:11:54;;;;;;;0.40;0.20;;;14.20;99.90;;;;;;4955531;29;20616;-66
2021/07/20 02:14:24;;;;;;;1.73;0.70;;;14.10;99.90;;;;;;4955513;29;20220;-66
2021/07/20 02:16:51;;;;;;;0.88;0.50;;;14.20;99.90;;;;;;4940720;29;20529;-67
2021/07/20 02:19:37;;;;;;;0.40;0.20;;;14.20;99.90;;;;;;4961718;28;20194;-66
2021/07/20 02:22:05;;;;;;;0.60;0.40;;;14.20;99.90;;;;;;4961762;29;20202;-66
2021/07/20 02:24:33;;;;;;;0.40;0.20;;;14.20;99.90;;;;;;4961806;28;20188;-65
2021/07/20 02:27:03;;;;;;;0.40;0.30;;;14.20;99.90;;;;;;4961552;28;20192;-66
2021/07/20 02:29:30;;;;;;;0.40;0.20;;;14.30;99.90;;;;;;4961503;29;20546;-66
2021/07/20 02:31:58;;;;;;;0.40;0.20;;;14.30;99.90;;;;;;4944849;29;20595;-65
2021/07/20 02:34:29;;;;;;;0.40;0.20;;;14.30;99.90;;;;;;4961654;29;20200;-66
2021/07/20 02:36:56;;;;;;;0.40;0.20;;;14.40;99.90;;;;;;4944778;29;20183;-66
2021/07/20 02:39:24;;;;;;;0.50;0.50;;;14.40;99.90;;;;;;4962143;29;20188;-66
2021/07/20 02:41:52;;;;;;;0.40;0.17;;;14.40;99.90;;;;;;4961756;28;20207;-66
2021/07/20 02:44:19;;;;;;;0.40;0.20;;;14.40;99.90;;;;;;4961677;29;20194;-66
2021/07/20 02:46:44;;;;;;;0.40;0.20;;;14.40;99.90;;;;;;4944559;29;20183;-66
2021/07/20 02:49:11;;;;;;;0.40;0.20;;;14.60;99.90;;;;;;4961361;28;20560;-66
2021/07/20 02:51:37;;;;;;;0.40;0.20;;;14.60;99.90;;;;;;4961589;28;20180;-66
2021/07/20 02:54:03;;;;;;;0.40;0.20;;;14.40;99.90;;;;;;4944615;29;20275;-65
2021/07/20 02:56:30;;;;;;;2.28;1.27;;;14.20;99.90;;;;;;4961523;29;20195;-66
2021/07/20 02:59:01;;;;;;;0.60;0.57;;;14.30;99.90;;;;;;4961378;28;20176;-66
2021/07/20 03:01:29;;;;;;;0.40;0.20;;;14.40;99.90;;;;;;4961299;28;20519;-67
2021/07/20 03:03:54;;;;;;;0.40;0.10;;;14.50;99.90;;;;;;4961371;29;20176;-66
2021/07/20 03:06:23;;;;;;;0.40;0.30;;;14.40;99.90;;;;;;4961332;28;20200;-66
2021/07/20 03:08:52;;;;;;;0.40;0.20;;;14.40;99.90;;;;;;4961443;28;20432;-66
2021/07/20 03:11:18;;;;;;;0.40;0.20;;;14.40;99.90;;;;;;4961744;29;20495;-66
2021/07/20 03:13:48;;;;;;;0.40;0.20;;;14.40;99.90;;;;;;4961484;29;20176;-66
2021/07/20 03:16:15;;;;;;;0.40;0.20;;;14.30;99.90;;;;;;4961342;28;20180;-65
2021/07/20 03:18:44;;;;;;;0.40;0.20;;;14.40;99.90;;;;;;4961511;29;20180;-66
2021/07/20 03:21:12;;;;;;;0.40;0.20;;;14.40;99.90;;;;;;4944434;29;20231;-65
2021/07/20 03:23:38;;;;;;;0.40;0.20;;;14.40;99.90;;;;;;4961705;28;20184;-65
2021/07/20 03:26:05;;;;;;;0.40;0.20;;;14.50;99.90;;;;;;4961520;29;20275;-64
2021/07/20 03:28:32;;;;;;;0.65;0.65;;;14.40;99.90;;;;;;4958479;28;20431;-64
2021/07/20 03:30:59;;;;;;;0.40;0.20;;;14.50;99.90;;;;;;4958271;29;20176;-64
2021/07/20 03:33:25;;;;;;;0.40;0.20;;;14.60;99.90;;;;;;4958313;29;20625;-64
2021/07/20 03:35:52;;;;;;;0.40;0.20;;;14.80;99.90;;;;;;4958579;29;20263;-64
2021/07/20 03:38:19;;;;;;;0.40;0.20;;;14.90;99.90;;;;;;4958265;29;20184;-64
2021/07/20 03:40:47;;;;;;;0.40;0.17;;;14.80;99.90;;;;;;4958256;29;20701;-64
2021/07/20 03:43:13;;;;;;;0.40;0.30;;;14.80;99.90;;;;;;4958248;29;20172;-64
2021/07/20 03:45:39;;;;;;;0.40;0.20;;;14.80;99.90;;;;;;4958225;29;20176;-64
2021/07/20 03:48:06;;;;;;;0.40;0.20;;;14.70;99.90;;;;;;4957960;29;20176;-64
2021/07/20 03:50:31;;;;;;;0.40;0.20;;;14.80;99.90;;;;;;4957965;29;20638;-64
2021/07/20 03:52:58;;;;;;;0.40;0.20;;;14.70;99.90;;;;;;4958016;29;20202;-64
2021/07/20 03:55:23;;;;;;;0.60;0.60;;;14.90;99.90;;;;;;4957822;29;20523;-64
2021/07/20 03:57:51;;;;;;;0.60;0.60;;;15.00;99.90;;;;;;4958053;29;20534;-64
2021/07/20 04:00:17;;;;;;;0.40;0.10;;;14.90;99.90;;;;;;4957163;29;20184;-64
2021/07/20 04:02:58;;;;;;;0.73;0.43;;;15.10;99.90;;;;;;4957342;29;20601;-64
2021/07/20 04:05:26;;;;;;;0.40;0.20;;;15.20;99.90;;;;;;4957672;29;20255;-64
2021/07/20 04:07:54;;;;;;;0.40;0.20;;;15.30;99.90;;;;;;4958017;29;20200;-64
2021/07/20 04:10:20;;;;;;;0.40;0.20;;;15.60;99.90;;;;;;4957518;29;20545;-64
2021/07/20 04:12:46;;;;;;;0.50;0.30;;;15.60;99.90;;;;;;4957578;29;20177;-64
2021/07/20 04:15:15;;;;;;;0.40;0.20;;;15.70;99.90;;;;;;4957547;29;20176;-64
2021/07/20 04:17:42;;;;;;;1.83;1.73;;;15.50;99.90;;;;;;4957442;29;20183;-65
2021/07/20 04:20:09;;;;;;;0.40;0.22;;;15.60;99.90;;;;;;4958037;29;20211;-64
2021/07/20 04:22:36;;;;;;;0.43;0.20;;;15.60;99.90;;;;;;4942583;29;20184;-62
2021/07/20 04:25:02;;;;;;;0.40;0.20;;;15.60;99.90;;;;;;4957344;29;20435;-62
2021/07/20 04:27:29;;;;;;;0.40;0.30;;;15.60;99.90;;;;;;4940552;29;20420;-61
2021/07/20 04:29:55;;;;;;;0.40;0.20;;;15.60;99.90;;;;;;4957089;29;20533;-64
2021/07/20 04:32:21;;;;;;;0.40;0.20;;;15.80;99.90;;;;;;4957128;29;20184;-64
2021/07/20 04:34:47;;;;;;;0.40;0.20;;;16.10;96.70;;;;;;4957118;29;20181;-64
2021/07/20 04:37:13;;;;;;;0.40;0.20;;;16.50;45.00;;;;;;4957134;29;20255;-64
2021/07/20 04:39:40;;;;;;;1.47;1.40;;;16.60;1.00;;;;;;4956666;28;20434;-64
2021/07/20 04:42:07;;;;;;;0.40;0.20;;;16.70;1.00;;;;;;4956946;29;20496;-64
2021/07/20 04:44:33;;;;;;;0.40;0.10;;;16.90;1.00;;;;;;4957138;29;20195;-64
2021/07/20 04:46:59;;;;;;;0.40;0.30;;;16.80;1.00;;;;;;4956998;29;20253;-64
2021/07/20 04:49:25;;;;;;;0.40;0.20;;;16.70;1.00;;;;;;4957059;29;20451;-64
2021/07/20 04:51:51;;;;;;;0.60;0.57;;;16.60;1.00;;;;;;4956935;29;20818;-64
2021/07/20 04:54:17;;;;;;;0.40;0.20;;;16.60;1.00;;;;;;4957060;29;20181;-64
2021/07/20 04:56:44;;;;;;;0.40;0.20;;;16.30;1.00;;;;;;4956583;29;20184;-64
2021/07/20 04:59:11;;;;;;;0.40;0.20;;;16.40;1.00;;;;;;4956844;29;20652;-64
2021/07/20 05:01:39;;;;;;;1.10;1.00;;;16.70;1.00;;;;;;4956726;29;20474;-66
2021/07/20 05:04:08;;;;;;;0.97;0.97;;;16.70;1.00;;;;;;4958796;29;20173;-64
2021/07/20 05:06:36;;;;;;;0.40;0.20;;;16.70;1.00;;;;;;4956681;29;20915;-66
2021/07/20 05:09:04;;;;;;;0.67;0.57;;;16.70;1.00;;;;;;4942832;29;20432;-66
2021/07/20 05:11:31;;;;;;;0.97;0.40;;;16.90;1.00;;;;;;4957513;29;20460;-64
2021/07/20 05:13:57;;;;;;;0.40;0.20;;;16.70;1.00;;;;;;4958544;29;20507;-66
2021/07/20 05:16:23;;;;;;;0.40;0.20;;;16.40;1.00;;;;;;4959769;29;20180;-67
2021/07/20 05:18:50;;;;;;;0.40;0.10;;;16.70;1.00;;;;;;4959539;29;20188;-67
2021/07/20 05:21:17;;;;;;;0.40;0.20;;;16.80;1.00;;;;;;4958630;29;20224;-64
2021/07/20 05:23:44;;;;;;;0.50;0.40;;;16.80;1.00;;;;;;4956129;29;20424;-64
2021/07/20 05:26:11;;;;;;;0.50;0.40;;;16.60;1.00;;;;;;4956227;29;20932;-64
2021/07/20 05:28:37;;;;;;;2.00;1.90;;;16.80;1.00;;;;;;4955956;29;20905;-63
2021/07/20 05:31:05;;;;;;;0.40;0.20;;;16.70;1.00;;;;;;4956230;29;20514;-64
2021/07/20 05:33:32;;;;;;;0.40;0.20;;;17.00;1.00;;;;;;4956191;29;20184;-64
2021/07/20 05:35:59;;;;;;;0.40;0.20;;;17.30;1.00;;;;;;4955912;29;20432;-66
2021/07/20 05:38:27;;;;;;;0.53;0.47;;;17.30;1.00;;;;;;4955874;29;20751;-67
2021/07/20 05:40:56;;;;;;;0.87;0.87;;;17.30;1.00;;;;;;4939213;29;20468;-66
2021/07/20 05:43:22;;;;;;;2.10;0.83;;;17.50;1.00;;;;;;4955887;29;20436;-66
2021/07/20 05:45:48;;;;;;;0.40;0.20;;;17.40;1.00;;;;;;4955754;29;20431;-66
2021/07/20 05:48:20;;;;;;;0.40;0.17;;;17.70;1.00;;;;;;4955714;29;20420;-66
2021/07/20 05:50:51;;;;;;;0.90;0.40;;;17.80;99.90;;;;;;4956376;28;20515;-66
2021/07/20 05:53:19;;;;;;;0.40;0.20;;;17.30;1.00;;;;;;4958117;29;20765;-65
2021/07/20 05:55:50;;;;;;;0.50;0.30;;;19.00;1.00;;;;;;4940051;29;20432;-62
2021/07/20 05:58:19;;;;;;;0.50;0.30;;;20.00;99.90;;;;;;4955538;29;20419;-62
2021/07/20 06:00:45;;;;;;;0.87;0.67;;;20.50;1.00;;;;;;4955679;29;20602;-65
2021/07/20 06:03:19;;;;;;;0.57;0.57;;;20.50;99.90;;;;;;4938742;29;20443;-67
2021/07/20 06:05:49;;;;;;;0.80;0.53;;;21.10;1.00;;;;;;4938864;29;20499;-65
2021/07/20 06:08:19;;;;;;;0.70;0.50;;;20.70;1.00;;;;;;4955515;29;20472;-65
2021/07/20 06:10:56;;;;;;;0.50;0.30;;;21.00;10.50;;;;;;4955581;29;20507;-63
2021/07/20 06:13:26;;;;;;;1.53;1.43;;;19.80;99.90;;;;;;4956005;29;20438;-65
2021/07/20 06:15:56;;;;;;;0.50;0.30;;;19.10;82.30;;;;;;4956607;29;20431;-63
2021/07/20 06:18:21;;;;;;;0.50;0.30;;;18.60;1.00;;;;;;4955572;29;20435;-65
2021/07/20 06:21:00;;;;;;;1.53;0.80;;;18.90;99.90;;;;;;4955679;29;20470;-63
2021/07/20 06:23:28;;;;;;;0.50;0.20;;;19.90;1.00;;;;;;4958237;29;20180;-65
2021/07/20 06:25:54;;;;;;;0.50;0.20;;;21.10;99.90;;;;;;4958918;29;20435;-66
2021/07/20 06:28:22;;;;;;;0.63;0.27;;;22.30;99.90;;;;;;4957756;29;20420;-66
2021/07/20 06:30:48;;;;;;;0.93;0.50;;;22.80;99.90;;;;;;4957785;29;20766;-63
2021/07/20 06:33:15;;;;;;;0.40;0.13;;;22.70;99.90;;;;;;4955635;29;20458;-64
2021/07/20 06:35:46;;;;;;;2.10;0.77;;;22.20;99.90;;;;;;4955553;29;20432;-63
2021/07/20 06:38:18;;;;;;;0.40;0.20;;;21.30;1.00;;;;;;4955113;29;20877;-63
2021/07/20 06:40:45;;;;;;;0.70;0.60;;;21.30;1.00;;;;;;4955349;29;20460;-64
2021/07/20 06:43:14;;;;;;;0.93;0.60;;;20.80;60.10;;;;;;4955505;29;20582;-63
2021/07/20 06:45:41;;;;;;;0.70;0.40;;;19.40;1.00;;;;;;4955500;29;20435;-63
2021/07/20 06:48:12;;;;;;;2.00;0.73;;;19.70;1.00;;;;;;4954842;29;20428;-63
2021/07/20 06:50:37;;;;;;;0.50;0.30;;;19.30;1.00;;;;;;4955259;29;20558;-63
2021/07/20 06:53:03;;;;;;;9.40;0.50;;;19.70;1.00;;;;;;4955111;29;20486;-66
2021/07/20 06:55:30;;;;;;;1.53;0.80;;;20.00;1.00;;;;;;4955590;29;20575;-63
2021/07/20 06:57:57;;;;;;;0.47;0.20;;;19.50;99.90;;;;;;4955780;29;20267;-67
2021/07/20 07:00:24;;;;;;;0.50;0.27;;;18.80;99.90;;;;;;4957873;29;20424;-66
2021/07/20 07:02:54;;;;;;;0.50;0.30;;;20.00;99.90;;;;;;4958814;28;20460;-66
2021/07/20 07:05:24;;;;;;;1.00;0.40;;;20.90;1.00;;;;;;4961005;29;20793;-67
2021/07/20 07:07:50;;;;;;;0.87;0.30;;;21.20;22.10;;;;;;4960837;29;20793;-66
2021/07/20 07:10:18;;;;;;;0.60;0.50;;;20.00;1.00;;;;;;4960903;29;20431;-66
2021/07/20 07:12:46;;;;;;;2.30;1.27;;;20.80;1.00;;;;;;4961127;29;20424;-67
2021/07/20 07:15:13;;;;;;;0.40;0.20;;;20.30;1.00;;;;;;4960628;29;21073;-66
2021/07/20 07:17:39;;;;;;;0.40;0.20;;;20.00;99.90;;;;;;4960293;29;20430;-67
2021/07/20 07:20:06;;;;;;;0.50;0.30;;;21.40;1.00;;;;;;4960200;29;20755;-67
2021/07/20 07:22:35;;;;;;;1.27;0.80;;;21.60;1.00;;;;;;4943268;29;20226;-67
2021/07/20 07:25:02;;;;;;;0.80;0.50;;;21.30;1.00;;;;;;4959516;29;20431;-66
2021/07/20 07:27:28;;;;;;;0.40;0.10;;;20.70;1.00;;;;;;4958725;29;20761;-67
2021/07/20 07:29:56;;;;;;;1.37;0.73;;;21.40;99.90;;;;;;4958771;29;20846;-64
2021/07/20 07:32:22;;;;;;;0.47;0.20;;;21.90;1.00;;;;;;4958842;29;20947;-66
2021/07/20 07:34:48;;;;;;;0.50;0.30;;;22.40;99.90;;;;;;4959728;29;20427;-64
2021/07/20 07:37:20;;;;;;;0.60;0.20;;;22.40;99.90;;;;;;4958321;29;20184;-63
2021/07/20 07:39:48;;;;;;;3.87;1.33;;;22.50;99.90;;;;;;4958422;28;20431;-65
2021/07/20 07:42:14;;;;;;;1.27;0.60;;;21.80;1.00;;;;;;4959015;29;20467;-65
2021/07/20 07:44:41;;;;;;;0.40;0.10;;;20.70;1.00;;;;;;4958462;29;20507;-66
2021/07/20 07:47:08;;;;;;;0.90;0.40;;;20.40;99.90;;;;;;4958933;29;20428;-67
2021/07/20 07:49:34;;;;;;;0.70;0.57;;;20.30;99.90;;;;;;4958240;29;20424;-65
2021/07/20 07:52:00;;;;;;;2.17;2.03;;;20.20;1.00;;;;;;4941932;29;20942;-66
2021/07/20 07:54:26;;;;;;;2.70;1.33;;;20.20;1.00;;;;;;4959228;29;20435;-66
2021/07/20 07:56:52;;;;;;;1.47;1.17;;;20.40;1.00;;;;;;4958589;29;20502;-66
2021/07/20 07:59:23;;;;;;;1.07;0.47;;;20.10;99.90;;;;;;4958002;29;20183;-67
2021/07/20 08:01:51;;;;;;;3.00;2.10;;;20.80;99.90;;;;;;4941015;29;20463;-66
2021/07/20 08:04:24;;;;;;;0.80;0.60;;;20.60;99.90;;;;;;4941061;29;20435;-66
2021/07/20 08:06:51;;;;;;;1.47;1.27;;;20.50;99.90;;;;;;4940942;29;20460;-63
2021/07/20 08:09:19;;;;;;;1.83;1.67;;;19.80;99.90;;;;;;4940727;29;20518;-64
2021/07/20 08:11:46;;;;;;;0.50;0.30;;;19.30;1.00;;;;;;4958257;29;20428;-66
2021/07/20 08:14:13;;;;;;;0.63;0.60;;;19.20;1.00;;;;;;4941568;29;20444;-66
2021/07/20 08:16:44;;;;;;;2.50;1.33;;;19.10;1.00;;;;;;4958903;29;20464;-66
2021/07/20 08:19:10;;;;;;;1.23;0.93;;;19.40;99.90;;;;;;4958144;29;20495;-66
2021/07/20 08:21:36;;;;;;;3.83;1.87;;;19.40;99.90;;;;;;4940947;29;20467;-64
2021/07/20 08:24:03;;;;;;;0.70;0.53;;;18.90;1.00;;;;;;4957215;29;20491;-64
2021/07/20 08:26:33;;;;;;;0.60;0.40;;;18.80;1.00;;;;;;4940489;29;20431;-63
2021/07/20 08:29:09;;;;;;;0.50;0.20;;;19.00;99.90;;;;;;4941527;29;20508;-66
2021/07/20 08:31:48;;;;;;;1.00;0.90;;;18.80;1.00;;;;;;4957952;29;20427;-65
2021/07/20 08:34:15;;;;;;;0.50;0.20;;;18.70;96.90;;;;;;4957433;29;20924;-63
2021/07/20 08:36:43;;;;;;;2.93;2.73;;;18.90;99.90;;;;;;4956984;29;20431;-63
2021/07/20 08:39:11;;;;;;;2.50;1.40;;;19.70;99.90;;;;;;4957328;29;20835;-63
2021/07/20 08:42:14;;;;;;;1.27;1.17;;;19.70;99.90;;;;;;4956797;29;20657;-65
2021/07/20 08:44:53;;;;;;;1.13;0.60;;;20.20;99.90;;;;;;4957369;29;20422;-66
2021/07/20 08:47:44;;;;;;;0.50;0.20;;;20.30;1.00;;;;;;4957570;29;20734;-65
2021/07/20 08:50:23;;;;;;;2.40;1.40;;;20.00;1.00;;;;;;4956790;29;20411;-67
2021/07/20 08:53:25;;;;;;;1.70;1.30;;;20.40;1.00;;;;;;4957063;29;20752;-66
2021/07/20 08:55:53;;;;;;;4.93;1.60;;;19.80;1.00;;;;;;4957839;29;20427;-63
2021/07/20 08:58:32;;;;;;;0.50;0.20;;;19.60;1.00;;;;;;4956523;29;20924;-63
2021/07/20 09:01:10;;;;;;;0.50;0.20;;;19.60;1.00;;;;;;4957714;29;20542;-64
2021/07/20 09:04:06;;;;;;;1.13;0.30;;;20.30;1.00;;;;;;4956730;29;20435;-66
2021/07/20 09:06:42;;;;;;;0.73;0.43;;;20.80;99.90;;;;;;4956409;29;20927;-66
2021/07/20 09:09:14;;;;;;;0.60;0.50;;;20.00;1.00;;;;;;4956199;29;20427;-66
2021/07/20 09:11:53;;;;;;;1.47;1.10;;;20.30;1.00;;;;;;4956473;29;20519;-66
2021/07/20 09:14:26;;;;;;;3.20;1.10;;;20.20;99.90;;;;;;4956541;29;20438;-66
2021/07/20 09:16:57;;;;;;;0.50;0.20;;;20.20;1.00;;;;;;4939255;29;20443;-66
2021/07/20 09:19:34;;;;;;;1.70;0.80;;;20.40;1.00;;;;;;4956251;29;20519;-65
2021/07/20 09:22:11;;;;;;;0.40;0.20;;;21.00;99.90;;;;;;4956883;29;20467;-63
2021/07/20 09:25:05;;;;;;;0.70;0.70;;;20.60;99.90;;;;;;4939791;29;20923;-66
2021/07/20 09:27:52;;;;;;;0.63;0.63;;;20.30;1.00;;;;;;4955065;28;20753;-67
2021/07/20 09:30:23;;;;;;;1.00;0.87;;;20.30;1.00;;;;;;4939094;29;20518;-67
2021/07/20 09:33:08;;;;;;;0.60;0.33;;;20.40;1.00;;;;;;4955989;29;20434;-67
2021/07/20 09:36:12;;;;;;;0.60;0.50;;;20.20;1.00;;;;;;4956693;29;20419;-67
2021/07/20 09:38:50;;;;;;;0.40;0.20;;;20.90;1.00;;;;;;4923751;29;20491;-66
2021/07/20 09:41:19;;;;;;;1.10;0.60;;;21.80;99.90;;;;;;4957726;29;20479;-67
2021/07/20 09:43:53;;;;;;;0.50;0.20;;;21.50;99.90;;;;;;4957872;29;20817;-66
2021/07/20 09:46:28;;;;;;;0.50;0.30;;;21.60;99.90;;;;;;4957327;29;20522;-64
2021/07/20 09:49:00;;;;;;;1.10;0.90;;;22.30;15.20;;;;;;4955752;29;20438;-64
2021/07/20 09:52:01;;;;;;;0.93;0.87;;;22.40;1.00;;;;;;4955879;29;20451;-64
2021/07/20 09:54:53;;;;;;;0.50;0.20;;;21.70;99.90;;;;;;4938748;29;20515;-64
2021/07/20 09:57:36;;;;;;;1.50;1.40;;;21.80;88.80;;;;;;4955611;29;20428;-64
2021/07/20 10:00:12;;;;;;;1.37;0.93;;;21.40;99.90;;;;;;4955586;29;20427;-66
2021/07/20 10:02:47;;;;;;;0.60;0.30;;;20.30;1.00;;;;;;4955699;29;20470;-67
2021/07/20 10:05:25;;;;;;;0.50;0.20;;;20.40;1.00;;;;;;4955834;29;20443;-66
2021/07/20 10:07:58;;;;;;;1.53;1.43;;;20.70;99.90;;;;;;4955815;29;20435;-67
2021/07/20 10:10:38;;;;;;;0.50;0.20;;;20.60;99.90;;;;;;4957276;29;20499;-66
2021/07/20 10:13:06;;;;;;;0.50;0.37;;;20.20;1.00;;;;;;4957311;29;20471;-66
2021/07/20 10:16:00;;;;;;;0.50;0.20;;;20.20;1.00;;;;;;4957127;29;20424;-66
2021/07/20 10:18:42;;;;;;;4.13;1.73;;;20.90;99.90;;;;;;4957028;29;20449;-67
2021/07/20 10:21:13;;;;;;;1.70;0.80;;;21.40;62.40;;;;;;4957197;29;20948;-67
2021/07/20 10:24:07;;;;;;;0.60;0.30;;;21.30;99.90;;;;;;4955674;29;20527;-63
2021/07/20 10:26:45;;;;;;;1.27;1.17;;;21.00;99.90;;;;;;4955612;29;20438;-65
2021/07/20 10:29:18;;;;;;;0.80;0.63;;;20.70;1.00;;;;;;4956061;29;20523;-65
2021/07/20 10:32:03;;;;;;;1.30;1.07;;;20.40;1.00;;;;;;4956615;29;20484;-65
2021/07/20 10:34:29;;;;;;;0.67;0.37;;;20.30;1.00;;;;;;4957007;29;20454;-66
2021/07/20 10:37:03;;;;;;;0.87;0.60;;;20.60;1.00;;;;;;4956996;28;20904;-65
2021/07/20 10:39:42;;;;;;;1.00;0.60;;;20.30;1.00;;;;;;4960793;29;20428;-66
2021/07/20 10:42:14;;;;;;;2.87;2.63;;;20.30;1.00;;;;;;4943913;29;20466;-66
2021/07/20 10:44:49;;;;;;;0.50;0.30;;;20.50;1.00;;;;;;4961094;29;20422;-66
2021/07/20 10:47:17;;;;;;;1.40;1.10;;;20.70;1.00;;;;;;4960742;29;20427;-66
2021/07/20 10:50:21;;;;;;;1.07;1.07;;;21.00;99.90;;;;;;4961462;29;20511;-69
2021/07/20 10:53:01;;;;;;;0.50;0.20;;;21.40;99.90;;;;;;4918783;29;20439;-65
2021/07/20 10:55:35;;;;;;;0.50;0.20;;;21.70;99.90;;;;;;4943651;29;20485;-67
2021/07/20 10:58:26;;;;;;;0.50;0.20;;;22.40;52.70;;;;;;4943941;29;20801;-65
2021/07/20 11:01:10;;;;;;;0.50;0.20;;;22.40;19.10;;;;;;4958577;29;20460;-67
2021/07/20 11:03:46;;;;;;;0.50;0.20;;;22.10;31.90;;;;;;4959130;29;20776;-66
2021/07/20 11:06:14;;;;;;;0.50;0.20;;;21.80;93.80;;;;;;4958715;29;20788;-65
2021/07/20 11:08:44;;;;;;;0.90;0.40;;;21.80;17.70;;;;;;4958580;29;20574;-67
2021/07/20 11:11:21;;;;;;;1.00;0.63;;;22.10;1.00;;;;;;4958450;29;20431;-66
2021/07/20 11:13:52;;;;;;;0.70;0.57;;;22.40;1.00;;;;;;4958558;29;20880;-65
2021/07/20 11:16:20;;;;;;;1.23;0.87;;;21.90;30.60;;;;;;4958593;29;20858;-65
2021/07/20 11:18:49;;;;;;;2.00;1.70;;;21.90;4.50;;;;;;4958538;29;20450;-65
2021/07/20 11:21:21;;;;;;;0.87;0.60;;;21.90;28.90;;;;;;4958317;29;20459;-66
2021/07/20 11:23:50;;;;;;;0.90;0.40;;;21.70;90.50;;;;;;4958625;29;20543;-66
2021/07/20 11:26:17;;;;;;;1.40;1.30;;;21.50;99.90;;;;;;4958437;29;20530;-65
2021/07/20 11:28:44;;;;;;;1.97;1.87;;;21.60;86.70;;;;;;4958296;29;20434;-67
2021/07/20 11:31:17;;;;;;;0.60;0.30;;;21.80;99.90;;;;;;4958311;29;20568;-65
2021/07/20 11:33:52;;;;;;;0.70;0.53;;;21.50;99.90;;;;;;4958509;29;20952;-67
2021/07/20 11:36:24;;;;;;;0.80;0.70;;;21.80;99.90;;;;;;4958365;29;20459;-67
2021/07/20 11:38:54;;;;;;;8.43;0.80;;;22.10;17.80;;;;;;4958183;29;20789;-66
2021/07/20 11:41:40;;;;;;;1.27;1.20;;;22.20;1.00;;;;;;4958297;29;20507;-65
2021/07/20 11:44:22;;;;;;;0.70;0.50;;;22.30;10.90;;;;;;4958048;29;20515;-63
2021/07/20 11:46:55;;;;;;;0.70;0.60;;;22.30;21.30;;;;;;4957904;29;20436;-64
2021/07/20 11:49:31;;;;;;;0.80;0.60;;;22.20;20.10;;;;;;4956891;28;20857;-63
2021/07/20 11:52:05;;;;;;;0.87;0.83;;;22.10;24.20;;;;;;4958409;29;20450;-64
2021/07/20 11:54:42;;;;;;;2.10;0.73;;;21.60;99.90;;;;;;4958154;29;20514;-64
2021/07/20 11:57:45;;;;;;;0.93;0.83;;;21.30;99.90;;;;;;4958208;29;20713;-63
2021/07/20 12:00:49;;;;;;;0.60;0.43;;;21.10;99.90;;;;;;4958158;29;20427;-64
2021/07/20 12:03:19;;;;;;;1.80;1.70;;;21.50;99.90;;;;;;4958213;29;20497;-64
2021/07/20 12:06:25;;;;;;;0.50;0.20;;;21.60;99.90;;;;;;4958001;29;20459;-63
2021/07/20 12:09:19;;;;;;;1.47;0.77;;;22.30;86.70;;;;;;4880419;29;20446;-64
2021/07/20 12:11:48;;;;;;;0.50;0.20;;;22.20;38.20;;;;;;4883589;29;20442;-63
2021/07/20 12:14:15;;;;;;;1.50;0.87;;;22.50;64.20;;;;;;4922185;29;20955;-63
2021/07/20 12:16:42;;;;;;;1.10;0.60;;;23.10;1.00;;;;;;4960763;29;20435;-63
2021/07/20 12:19:08;;;;;;;0.50;0.20;;;23.20;1.00;;;;;;4961143;29;20526;-65
2021/07/20 12:21:36;;;;;;;0.50;0.20;;;22.50;1.00;;;;;;4961022;29;20476;-64
2021/07/20 12:24:08;;;;;;;1.13;0.93;;;22.40;1.00;;;;;;4961895;29;20434;-63
2021/07/20 12:26:35;;;;;;;1.03;0.47;;;22.20;1.00;;;;;;4961390;29;20435;-63
2021/07/20 12:29:02;;;;;;;0.90;0.53;;;22.10;52.70;;;;;;4962061;29;20481;-63
2021/07/20 12:31:30;;;;;;;1.03;0.63;;;22.40;20.20;;;;;;4960640;29;20831;-64
2021/07/20 12:33:56;;;;;;;0.50;0.20;;;22.40;57.00;;;;;;4944340;29;21065;-63
2021/07/20 12:36:23;;;;;;;1.27;1.17;;;21.80;99.90;;;;;;4960808;29;20474;-63
2021/07/20 12:39:12;;;;;;;0.50;0.20;;;22.20;99.90;;;;;;4960319;29;20444;-64
2021/07/20 12:41:52;;;;;;;6.20;2.47;;;22.50;95.40;;;;;;4956948;29;20498;-64
2021/07/20 12:44:19;;;;;;;4.03;2.00;;;22.20;99.90;;;;;;4956842;29;20507;-64
2021/07/20 12:46:45;;;;;;;0.70;0.50;;;22.20;99.90;;;;;;4956855;29;20428;-64
2021/07/20 12:49:12;;;;;;;1.57;1.37;;;22.20;99.90;;;;;;4956503;29;20428;-64
2021/07/20 12:51:51;;;;;;;0.50;0.20;;;22.40;99.90;;;;;;4956757;29;20897;-64
2021/07/20 12:54:41;;;;;;;1.60;1.43;;;22.40;99.90;;;;;;4956813;29;20431;-63
2021/07/20 12:57:09;;;;;;;1.07;0.70;;;21.90;1.00;;;;;;4956835;29;20432;-64
2021/07/20 12:59:40;;;;;;;1.90;0.90;;;22.30;99.90;;;;;;4956601;29;20431;-64
2021/07/20 13:02:14;;;;;;;0.50;0.30;;;22.60;99.90;;;;;;4956363;28;20543;-64
2021/07/20 13:04:43;;;;;;;1.73;0.93;;;23.00;99.90;;;;;;4956627;29;20419;-64
2021/07/20 13:07:10;;;;;;;0.50;0.20;;;23.40;99.90;;;;;;4956745;29;20424;-63
2021/07/20 13:09:36;;;;;;;0.77;0.60;;;23.20;99.90;;;;;;4956388;29;20427;-64
2021/07/20 13:12:02;;;;;;;1.10;0.40;;;22.80;99.90;;;;;;4956445;29;20859;-64
2021/07/20 13:14:32;;;;;;;5.90;3.67;;;22.90;99.90;;;;;;4956283;29;20923;-64